createdAt,value
2022-09-10T00:00:01.134Z,65.6
2022-09-10T00:01:03.471Z,65.5
2022-09-10T00:02:01.119Z,64.7
2022-09-10T00:03:01.078Z,63.5
2022-09-10T00:04:01.037Z,63.1
2022-09-10T00:05:01.264Z,63.1
2022-09-10T00:06:06.789Z,63.7
2022-09-10T00:07:01.759Z,64.1
2022-09-10T00:08:01.904Z,62.9
2022-09-10T00:09:01.809Z,62.8
2022-09-10T00:10:02.148Z,62.5
2022-09-10T00:11:10.169Z,62.4
2022-09-10T00:12:01.251Z,63.1
2022-09-10T00:13:01.385Z,63.5
2022-09-10T00:14:01.029Z,63.5
2022-09-10T00:15:00.720Z,62.5
2022-09-10T00:16:12.781Z,61.8
2022-09-10T00:17:02.374Z,62.2
2022-09-10T00:18:01.057Z,62.2
2022-09-10T00:19:01.068Z,63.1
2022-09-10T00:20:01.449Z,63.3
2022-09-10T00:21:01.181Z,63.8
2022-09-10T00:22:01.303Z,64.8
2022-09-10T00:23:01.080Z,65
2022-09-10T00:24:01.102Z,65
2022-09-10T00:25:04.012Z,65.7
2022-09-10T00:26:01.422Z,65.7
2022-09-10T00:27:01.373Z,65.5
2022-09-10T00:28:01.404Z,65.9
2022-09-10T00:29:01.004Z,65.7
2022-09-10T00:30:01.240Z,65.7
2022-09-10T00:31:01.244Z,65.5
2022-09-10T00:32:01.043Z,66
2022-09-10T00:33:01.047Z,66.3
2022-09-10T00:34:01.072Z,66.1
2022-09-10T00:35:01.070Z,65.4
2022-09-10T00:36:01.083Z,65.2
2022-09-10T00:37:01.183Z,65.5
2022-09-10T00:38:01.178Z,65.8
2022-09-10T00:39:01.399Z,65.8
2022-09-10T00:40:01.165Z,65.7
2022-09-10T00:41:01.849Z,65.8
2022-09-10T00:42:01.107Z,66.2
2022-09-10T00:43:01.141Z,66.8
2022-09-10T00:44:00.689Z,67.3
2022-09-10T00:45:00.871Z,66.8
2022-09-10T00:46:01.974Z,66
2022-09-10T00:47:01.144Z,65.3
2022-09-10T00:48:01.046Z,64.8
2022-09-10T00:49:01.133Z,65.2
2022-09-10T00:50:01.871Z,65.5
2022-09-10T00:51:01.199Z,66.1
2022-09-10T00:52:01.458Z,66.3
2022-09-10T00:53:01.183Z,66.1
2022-09-10T00:54:01.142Z,65.9
2022-09-10T00:55:01.107Z,66.3
2022-09-10T00:56:01.299Z,66.4
2022-09-10T00:57:01.948Z,66.5
2022-09-10T00:58:01.881Z,66.4
2022-09-10T00:59:01.150Z,65.6
2022-09-10T01:00:01.529Z,65.6
2022-09-10T01:01:01.566Z,64.9
2022-09-10T01:02:01.229Z,64.4
2022-09-10T01:03:01.048Z,63.2
2022-09-10T01:04:00.849Z,63.5
2022-09-10T01:05:00.447Z,63.2
2022-09-10T01:05:59.977Z,63.3
2022-09-10T01:06:59.517Z,63.3
2022-09-10T01:08:01.740Z,64
2022-09-10T01:09:01.182Z,63.7
2022-09-10T01:10:01.080Z,63.2
2022-09-10T01:11:01.102Z,63
2022-09-10T01:12:02.318Z,62.9
2022-09-10T01:13:01.288Z,63.7
2022-09-10T01:13:59.794Z,64.3
2022-09-10T01:15:02.157Z,65
2022-09-10T01:16:01.750Z,65.5
2022-09-10T01:17:02.093Z,65.7
2022-09-10T01:18:01.162Z,66.2
2022-09-10T01:19:01.060Z,66.9
2022-09-10T01:20:01.059Z,66.9
2022-09-10T01:21:01.368Z,66.6
2022-09-10T01:22:02.754Z,67.4
2022-09-10T01:23:02.140Z,67.6
2022-09-10T01:24:01.391Z,67.5
2022-09-10T01:25:01.090Z,66.8
2022-09-10T01:26:01.095Z,66.4
2022-09-10T01:27:01.117Z,66.7
2022-09-10T01:28:01.130Z,66.7
2022-09-10T01:29:00.796Z,66.6
2022-09-10T01:30:00.506Z,66.1
2022-09-10T01:31:00.204Z,65.6
2022-09-10T01:32:03.258Z,64.7
2022-09-10T01:33:01.155Z,64.6
2022-09-10T01:34:01.780Z,64.6
2022-09-10T01:35:01.969Z,64.2
2022-09-10T01:36:01.718Z,62.9
2022-09-10T01:37:05.386Z,62.5
2022-09-10T01:38:01.196Z,62.1
2022-09-10T01:39:01.456Z,62.1
2022-09-10T01:40:01.092Z,61.6
2022-09-10T01:41:01.098Z,61.6
2022-09-10T01:42:09.051Z,61.6
2022-09-10T01:43:01.113Z,61.2
2022-09-10T01:44:01.731Z,61.3
2022-09-10T01:45:01.115Z,61.6
2022-09-10T01:46:01.219Z,62.1
2022-09-10T01:47:10.917Z,62.5
2022-09-10T01:48:01.517Z,62.3
2022-09-10T01:49:00.927Z,62.7
2022-09-10T01:50:01.051Z,62.5
2022-09-10T01:51:01.080Z,62.5
2022-09-10T01:52:15.161Z,62.5
2022-09-10T01:53:01.075Z,62.4
2022-09-10T01:54:01.476Z,62.2
2022-09-10T01:55:01.089Z,61.9
2022-09-10T01:56:01.106Z,62
2022-09-10T01:57:01.106Z,61
2022-09-10T01:58:00.722Z,60.5
2022-09-10T01:59:00.391Z,60.7
2022-09-10T02:00:00.120Z,60.3
2022-09-10T02:00:59.908Z,60
2022-09-10T02:01:59.617Z,59.9
2022-09-10T02:03:01.219Z,59.8
2022-09-10T02:04:01.167Z,59.7
2022-09-10T02:05:01.054Z,59.5
2022-09-10T02:06:01.049Z,59.6
2022-09-10T02:07:01.060Z,59.5
2022-09-10T02:08:01.455Z,59.5
2022-09-10T02:09:01.036Z,59.5
2022-09-10T02:10:01.047Z,58.9
2022-09-10T02:11:01.035Z,58.2
2022-09-10T02:12:01.096Z,58.2
2022-09-10T02:13:01.117Z,58.7
2022-09-10T02:14:01.099Z,58.7
2022-09-10T02:15:01.109Z,58.7
2022-09-10T02:16:01.197Z,58.8
2022-09-10T02:17:01.167Z,58.6
2022-09-10T02:18:01.257Z,58.7
2022-09-10T02:19:01.124Z,59.3
2022-09-10T02:20:01.144Z,59.5
2022-09-10T02:21:01.042Z,59
2022-09-10T02:22:01.044Z,59.2
2022-09-10T02:23:01.447Z,59.1
2022-09-10T02:24:01.167Z,59.5
2022-09-10T02:25:01.140Z,59
2022-09-10T02:26:01.097Z,58.8
2022-09-10T02:27:00.787Z,59.1
2022-09-10T02:28:00.766Z,59.1
2022-09-10T02:29:00.471Z,59.2
2022-09-10T02:30:00.436Z,58.5
2022-09-10T02:31:00.031Z,58.7
2022-09-10T02:31:59.665Z,58.5
2022-09-10T02:33:01.810Z,59.1
2022-09-10T02:34:02.157Z,58.9
2022-09-10T02:35:01.449Z,58.6
2022-09-10T02:36:01.152Z,58.5
2022-09-10T02:37:01.054Z,58.1
2022-09-10T02:38:01.234Z,58
2022-09-10T02:39:01.152Z,58.3
2022-09-10T02:40:01.524Z,57.5
2022-09-10T02:41:01.082Z,57.3
2022-09-10T02:42:01.081Z,57
2022-09-10T02:43:01.093Z,57.3
2022-09-10T02:44:01.098Z,57
2022-09-10T02:45:01.097Z,56.4
2022-09-10T02:46:01.182Z,56.9
2022-09-10T02:47:01.112Z,56.6
2022-09-10T02:48:01.154Z,56.7
2022-09-10T02:49:01.522Z,56.3
2022-09-10T02:50:01.506Z,56.4
2022-09-10T02:51:01.071Z,56.1
2022-09-10T02:52:01.051Z,55.9
2022-09-10T02:53:01.063Z,56.1
2022-09-10T02:54:01.047Z,56.1
2022-09-10T02:55:01.074Z,56.3
2022-09-10T02:56:01.045Z,56
2022-09-10T02:57:01.088Z,56.3
2022-09-10T02:58:01.480Z,56.5
2022-09-10T02:59:01.031Z,56.2
2022-09-10T03:00:01.146Z,56.1
2022-09-10T03:01:01.140Z,56.4
2022-09-10T03:02:01.164Z,56.2
2022-09-10T03:03:03.234Z,56.4
2022-09-10T03:04:01.190Z,55.9
2022-09-10T03:05:01.228Z,56.4
2022-09-10T03:06:01.141Z,56.6
2022-09-10T03:07:01.145Z,57
2022-09-10T03:08:02.061Z,57.4
2022-09-10T03:09:01.058Z,57.4
2022-09-10T03:10:01.061Z,57.8
2022-09-10T03:11:01.062Z,57.7
2022-09-10T03:12:01.068Z,57
2022-09-10T03:13:05.080Z,57.3
2022-09-10T03:14:01.777Z,58.2
2022-09-10T03:15:01.405Z,58
2022-09-10T03:16:01.179Z,58.1
2022-09-10T03:17:01.842Z,59.4
2022-09-10T03:18:08.758Z,59.2
2022-09-10T03:19:01.511Z,58.3
2022-09-10T03:20:01.126Z,59
2022-09-10T03:21:01.239Z,59.2
2022-09-10T03:22:01.157Z,59.4
2022-09-10T03:23:11.175Z,59.4
2022-09-10T03:24:02.127Z,59.1
2022-09-10T03:25:01.171Z,59
2022-09-10T03:26:01.075Z,59.1
2022-09-10T03:27:01.079Z,59
2022-09-10T03:28:13.610Z,59.3
2022-09-10T03:29:01.053Z,59.1
2022-09-10T03:30:01.037Z,58.6
2022-09-10T03:31:01.145Z,57.4
2022-09-10T03:32:00.796Z,56.9
2022-09-10T03:33:15.204Z,56.8
2022-09-10T03:34:01.235Z,56.6
2022-09-10T03:35:01.248Z,56.1
2022-09-10T03:36:01.265Z,56.3
2022-09-10T03:37:01.283Z,56.3
2022-09-10T03:38:16.773Z,57.1
2022-09-10T03:39:01.183Z,56.6
2022-09-10T03:40:01.290Z,56.7
2022-09-10T03:41:01.872Z,56.6
2022-09-10T03:42:00.566Z,56.7
2022-09-10T03:43:00.251Z,56.8
2022-09-10T03:44:00.027Z,57
2022-09-10T03:44:59.629Z,56.9
2022-09-10T03:46:01.527Z,56.8
2022-09-10T03:47:01.339Z,56.6
2022-09-10T03:48:01.116Z,56.7
2022-09-10T03:49:01.116Z,56.7
2022-09-10T03:50:01.168Z,56.7
2022-09-10T03:51:01.120Z,56.9
2022-09-10T03:52:01.147Z,56.9
2022-09-10T03:53:01.139Z,57
2022-09-10T03:54:01.526Z,57.1
2022-09-10T03:55:01.145Z,56.8
2022-09-10T03:56:01.070Z,56.8
2022-09-10T03:57:01.053Z,56.8
2022-09-10T03:58:01.069Z,57
2022-09-10T03:59:01.072Z,57.3
2022-09-10T04:00:01.031Z,57.3
2022-09-10T04:01:01.140Z,57.4
2022-09-10T04:02:01.251Z,57.3
2022-09-10T04:03:01.299Z,57.5
2022-09-10T04:04:02.050Z,57.5
2022-09-10T04:05:01.204Z,57.5
2022-09-10T04:06:01.558Z,57
2022-09-10T04:07:01.153Z,56.6
2022-09-10T04:08:01.135Z,55.9
2022-09-10T04:09:01.145Z,55.9
2022-09-10T04:10:01.036Z,56
2022-09-10T04:11:01.052Z,55.9
2022-09-10T04:12:01.061Z,55.5
2022-09-10T04:13:00.749Z,55.4
2022-09-10T04:14:00.455Z,55.8
2022-09-10T04:15:00.032Z,56
2022-09-10T04:15:59.636Z,56.2
2022-09-10T04:17:01.284Z,55.9
2022-09-10T04:18:01.900Z,55.9
2022-09-10T04:19:02.030Z,56.3
2022-09-10T04:20:01.130Z,56
2022-09-10T04:21:01.107Z,55.8
2022-09-10T04:22:01.129Z,55.9
2022-09-10T04:23:01.130Z,55.7
2022-09-10T04:24:02.171Z,55.1
2022-09-10T04:25:01.067Z,55.6
2022-09-10T04:26:01.053Z,55.4
2022-09-10T04:27:01.060Z,55.4
2022-09-10T04:28:01.063Z,55.9
2022-09-10T04:29:01.080Z,56.2
2022-09-10T04:30:00.553Z,56.6
2022-09-10T04:31:00.375Z,56.6
2022-09-10T04:31:59.982Z,57
2022-09-10T04:32:59.562Z,57.3
2022-09-10T04:34:01.215Z,57
2022-09-10T04:35:01.459Z,57.2
2022-09-10T04:36:01.518Z,57.4
2022-09-10T04:37:01.688Z,57.4
2022-09-10T04:38:01.162Z,57.7
2022-09-10T04:39:01.254Z,57.9
2022-09-10T04:40:01.631Z,58.3
2022-09-10T04:41:01.167Z,58.4
2022-09-10T04:42:01.075Z,58.7
2022-09-10T04:43:01.056Z,58.8
2022-09-10T04:44:01.163Z,58.9
2022-09-10T04:45:01.070Z,58.9
2022-09-10T04:46:01.106Z,59.2
2022-09-10T04:47:01.088Z,59.5
2022-09-10T04:48:06.159Z,59.7
2022-09-10T04:49:01.053Z,62
2022-09-10T04:50:01.937Z,61.2
2022-09-10T04:51:18.005Z,60.5
2022-09-10T04:52:02.342Z,60.7
2022-09-10T04:53:01.003Z,61.2
2022-09-10T04:54:01.129Z,61.4
2022-09-10T04:55:00.608Z,62.2
2022-09-10T04:56:00.213Z,62.5
2022-09-10T04:56:59.796Z,61.8
2022-09-10T04:58:01.730Z,61.2
2022-09-10T04:59:01.356Z,60.8
2022-09-10T05:00:01.988Z,60.5
2022-09-10T05:01:01.213Z,61
2022-09-10T05:02:01.148Z,61.5
2022-09-10T05:03:01.267Z,61.6
2022-09-10T05:04:03.457Z,61.4
2022-09-10T05:05:02.402Z,60.8
2022-09-10T05:06:01.126Z,60.5
2022-09-10T05:07:01.156Z,60.2
2022-09-10T05:08:01.123Z,60.3
2022-09-10T05:09:06.129Z,60.4
2022-09-10T05:10:01.130Z,60.7
2022-09-10T05:11:01.136Z,61
2022-09-10T05:12:01.170Z,60.7
2022-09-10T05:13:00.850Z,59.3
2022-09-10T05:14:08.539Z,58.6
2022-09-10T05:15:01.803Z,57.2
2022-09-10T05:16:01.100Z,55.2
2022-09-10T05:17:01.324Z,52.4
2022-09-10T05:18:01.377Z,50
2022-09-10T05:19:11.904Z,47.3
2022-09-10T05:20:02.485Z,45.8
2022-09-10T05:21:01.105Z,45.5
2022-09-10T05:22:01.166Z,45.3
2022-09-10T05:23:01.130Z,45.8
2022-09-10T05:24:14.901Z,45.1
2022-09-10T05:25:01.127Z,42.6
2022-09-10T05:26:01.507Z,38.6
2022-09-10T05:27:01.148Z,36.2
2022-09-10T05:28:01.069Z,35.2
2022-09-10T05:29:01.035Z,34.5
2022-09-10T05:30:01.054Z,34.4
2022-09-10T05:31:01.073Z,34.4
2022-09-10T05:32:01.110Z,34.4
2022-09-10T05:33:01.270Z,34.6
2022-09-10T05:34:02.002Z,35.5
2022-09-10T05:35:01.867Z,36.4
2022-09-10T05:36:01.108Z,35.4
2022-09-10T05:37:01.097Z,35
2022-09-10T05:38:01.129Z,32.9
2022-09-10T05:39:01.129Z,31.5
2022-09-10T05:40:01.170Z,27.7
2022-09-10T05:41:01.087Z,24.7
2022-09-10T05:42:01.532Z,23.3
2022-09-10T05:43:01.244Z,21.3
2022-09-10T05:44:01.105Z,18.5
2022-09-10T05:45:01.457Z,17.3
2022-09-10T05:46:01.138Z,16.7
2022-09-10T05:47:01.197Z,17.1
2022-09-10T05:48:01.076Z,17.4
2022-09-10T05:49:01.085Z,17.6
2022-09-10T05:50:01.724Z,18.8
2022-09-10T05:51:01.482Z,19.2
2022-09-10T05:52:02.314Z,20
2022-09-10T05:53:01.080Z,20.1
2022-09-10T05:54:00.796Z,20.6
2022-09-10T05:55:00.394Z,23.3
2022-09-10T05:56:00.510Z,24
2022-09-10T05:57:00.183Z,26
2022-09-10T05:58:00.088Z,26.2
2022-09-10T05:58:59.808Z,26.2
2022-09-10T06:00:01.442Z,26.8
2022-09-10T06:01:01.267Z,26.9
2022-09-10T06:02:01.427Z,29.5
2022-09-10T06:03:01.395Z,30.5
2022-09-10T06:04:01.103Z,30.4
2022-09-10T06:05:01.103Z,30.6
2022-09-10T06:06:01.549Z,32.7
2022-09-10T06:07:01.567Z,32.9
2022-09-10T06:08:03.351Z,32.4
2022-09-10T06:09:01.520Z,33.5
2022-09-10T06:10:00.948Z,33.7
2022-09-10T06:11:01.121Z,34.4
2022-09-10T06:12:01.042Z,34.4
2022-09-10T06:13:01.140Z,33.8
2022-09-10T06:14:01.429Z,33.6
2022-09-10T06:15:01.716Z,33.5
2022-09-10T06:16:01.054Z,33.5
2022-09-10T06:17:01.038Z,33.7
2022-09-10T06:18:01.064Z,32.8
2022-09-10T06:19:01.032Z,32.5
2022-09-10T06:20:01.026Z,32.8
2022-09-10T06:21:01.096Z,33.1
2022-09-10T06:22:01.755Z,33.3
2022-09-10T06:23:01.743Z,33.2
2022-09-10T06:24:01.530Z,33.5
2022-09-10T06:25:02.115Z,33.5
2022-09-10T06:26:01.515Z,33.3
2022-09-10T06:27:01.132Z,33.3
2022-09-10T06:28:01.124Z,32.8
2022-09-10T06:29:02.224Z,33.3
2022-09-10T06:30:01.344Z,33.8
2022-09-10T06:31:01.390Z,33.8
2022-09-10T06:32:01.058Z,34.1
2022-09-10T06:33:01.069Z,34.3
2022-09-10T06:34:01.042Z,35.2
2022-09-10T06:35:01.583Z,34.5
2022-09-10T06:36:01.083Z,34.3
2022-09-10T06:37:01.605Z,34.4
2022-09-10T06:38:01.326Z,34.2
2022-09-10T06:39:02.000Z,34.2
2022-09-10T06:40:04.689Z,34
2022-09-10T06:41:01.266Z,33.5
2022-09-10T06:42:01.333Z,33.7
2022-09-10T06:43:01.129Z,34.9
2022-09-10T06:44:01.185Z,35.3
2022-09-10T06:45:05.841Z,34.5
2022-09-10T06:46:01.757Z,34.3
2022-09-10T06:49:01.096Z,34.9
2022-09-10T06:50:09.370Z,34.9
2022-09-10T06:51:01.086Z,34.8
2022-09-10T06:52:01.417Z,34.6
2022-09-10T06:53:01.187Z,34.3
2022-09-10T06:54:01.323Z,34.7
2022-09-10T06:55:11.514Z,35
2022-09-10T06:56:04.016Z,34.9
2022-09-10T06:57:01.123Z,35.4
2022-09-10T06:58:01.129Z,35.6
2022-09-10T06:59:02.573Z,35.4
2022-09-10T07:00:15.133Z,34.9
2022-09-10T07:01:01.683Z,34.4
2022-09-10T07:02:02.104Z,35.4
2022-09-10T07:03:02.379Z,35.4
2022-09-10T07:04:01.072Z,35.4
2022-09-10T07:05:01.100Z,36
2022-09-10T07:06:01.107Z,36.6
2022-09-10T07:07:01.143Z,36.5
2022-09-10T07:08:01.230Z,36.4
2022-09-10T07:09:01.480Z,35
2022-09-10T07:10:01.482Z,35.4
2022-09-10T07:11:02.123Z,35.5
2022-09-10T07:12:01.113Z,36.3
2022-09-10T07:13:01.123Z,36
2022-09-10T07:14:01.697Z,35.4
2022-09-10T07:15:01.478Z,35.8
2022-09-10T07:16:01.545Z,35.9
2022-09-10T07:17:01.419Z,35.1
2022-09-10T07:18:02.245Z,35.4
2022-09-10T07:19:01.051Z,35.5
2022-09-10T07:20:01.082Z,35.1
2022-09-10T07:21:01.086Z,35.5
2022-09-10T07:22:01.279Z,35.4
2022-09-10T07:23:01.203Z,35.5
2022-09-10T07:24:01.612Z,36.2
2022-09-10T07:25:01.103Z,35.1
2022-09-10T07:26:01.501Z,34.7
2022-09-10T07:27:02.164Z,34.6
2022-09-10T07:28:01.064Z,34.3
2022-09-10T07:29:01.024Z,34.1
2022-09-10T07:30:01.214Z,35.5
2022-09-10T07:31:01.413Z,35.5
2022-09-10T07:32:02.168Z,35.5
2022-09-10T07:33:01.073Z,35.7
2022-09-10T07:34:00.875Z,35.4
2022-09-10T07:35:01.487Z,35.2
2022-09-10T07:36:01.260Z,34.8
2022-09-10T07:37:01.382Z,35.6
2022-09-10T07:38:02.487Z,37.1
2022-09-10T07:39:02.467Z,35.7
2022-09-10T07:40:02.280Z,35.2
2022-09-10T07:41:01.117Z,35.4
2022-09-10T07:42:01.112Z,34.4
2022-09-10T07:43:01.378Z,33.5
2022-09-10T07:44:01.574Z,33.8
2022-09-10T07:45:01.528Z,33
2022-09-10T07:46:04.280Z,32.2
2022-09-10T07:47:01.345Z,32.6
2022-09-10T07:48:02.050Z,32.9
2022-09-10T07:49:01.955Z,33.2
2022-09-10T07:50:01.978Z,33.6
2022-09-10T07:51:02.045Z,33.3
2022-09-10T07:52:01.163Z,33.5
2022-09-10T07:53:00.785Z,32.5
2022-09-10T07:54:00.472Z,32.5
2022-09-10T07:55:00.190Z,33.9
2022-09-10T07:55:59.995Z,31.6
2022-09-10T07:56:59.779Z,31
2022-09-10T07:58:01.567Z,30.9
2022-09-10T07:59:02.404Z,30.7
2022-09-10T08:00:02.201Z,30.5
2022-09-10T08:01:02.295Z,30
2022-09-10T08:02:02.295Z,28.8
2022-09-10T08:03:01.274Z,29.5
2022-09-10T08:04:01.045Z,29.4
2022-09-10T08:05:01.364Z,29.9
2022-09-10T08:06:01.424Z,28.3
2022-09-10T08:07:01.139Z,28.1
2022-09-10T08:08:01.054Z,28.4
2022-09-10T08:09:01.041Z,29.3
2022-09-10T08:10:01.096Z,29.7
2022-09-10T08:11:01.478Z,28.4
2022-09-10T08:12:02.419Z,28.3
2022-09-10T08:13:01.204Z,28.4
2022-09-10T08:14:00.908Z,26.9
2022-09-10T08:15:01.038Z,27.8
2022-09-10T08:16:01.135Z,26.9
2022-09-10T08:17:01.140Z,27.4
2022-09-10T08:18:01.042Z,26.9
2022-09-10T08:19:01.150Z,27.4
2022-09-10T08:20:01.055Z,27.3
2022-09-10T08:21:01.681Z,28.1
2022-09-10T08:22:02.097Z,28.6
2022-09-10T08:23:01.927Z,27.7
2022-09-10T08:24:01.713Z,27.5
2022-09-10T08:25:01.066Z,27.8
2022-09-10T08:26:04.475Z,28.2
2022-09-10T08:27:01.799Z,28.3
2022-09-10T08:28:01.234Z,26.1
2022-09-10T08:29:01.685Z,25.3
2022-09-10T08:30:01.616Z,26.1
2022-09-10T08:31:06.840Z,25.9
2022-09-10T08:32:02.451Z,26
2022-09-10T08:33:02.074Z,26.8
2022-09-10T08:34:00.524Z,26.9
2022-09-10T08:35:00.220Z,26.1
2022-09-10T08:36:07.434Z,28.3
2022-09-10T08:37:01.775Z,27.7
2022-09-10T08:38:01.890Z,27.2
2022-09-10T08:39:05.103Z,27.3
2022-09-10T08:40:01.166Z,26.8
2022-09-10T08:41:10.071Z,27.1
2022-09-10T08:42:01.784Z,26.1
2022-09-10T08:43:01.209Z,25.4
2022-09-10T08:44:01.325Z,25.8
2022-09-10T08:45:00.899Z,26.1
2022-09-10T08:46:11.580Z,26.4
2022-09-10T08:47:02.131Z,26.3
2022-09-10T08:48:01.769Z,26.6
2022-09-10T08:49:01.042Z,26.3
2022-09-10T08:50:01.062Z,26
2022-09-10T08:51:15.369Z,27.4
2022-09-10T08:52:02.093Z,28.7
2022-09-10T08:53:01.279Z,27
2022-09-10T08:54:01.266Z,26.2
2022-09-10T08:55:01.271Z,25.3
2022-09-10T08:56:16.814Z,24.9
2022-09-10T08:57:01.100Z,24.3
2022-09-10T08:58:01.107Z,24.3
2022-09-10T08:59:01.313Z,24.2
2022-09-10T09:00:01.193Z,25
2022-09-10T09:01:01.610Z,24
2022-09-10T09:02:02.334Z,24
2022-09-10T09:03:01.968Z,24
2022-09-10T09:04:05.942Z,23.3
2022-09-10T09:05:01.084Z,23.1
2022-09-10T09:06:01.215Z,22.5
2022-09-10T09:07:01.530Z,23
2022-09-10T09:08:01.824Z,21.9
2022-09-10T09:09:01.088Z,23.2
2022-09-10T09:10:01.074Z,23
2022-09-10T09:11:01.690Z,21.8
2022-09-10T09:12:02.008Z,19.6
2022-09-10T09:13:01.278Z,19.7
2022-09-10T09:14:00.757Z,19.5
2022-09-10T09:15:00.440Z,20
2022-09-10T09:16:00.405Z,19.6
2022-09-10T09:17:00.086Z,19.6
2022-09-10T09:17:59.664Z,19.9
2022-09-10T09:19:01.343Z,20
2022-09-10T09:20:01.361Z,19.3
2022-09-10T09:21:02.873Z,19.6
2022-09-10T09:22:00.742Z,20
2022-09-10T09:23:00.601Z,19.2
2022-09-10T09:24:13.195Z,19.6
2022-09-10T09:25:01.551Z,18.3
2022-09-10T09:26:01.342Z,16.5
2022-09-10T09:27:01.049Z,16.5
2022-09-10T09:28:01.032Z,17.4
2022-09-10T09:29:01.631Z,17.8
2022-09-10T09:30:01.340Z,17.9
2022-09-10T09:31:04.375Z,18.3
2022-09-10T09:32:01.501Z,17.5
2022-09-10T09:33:01.036Z,17.8
2022-09-10T09:34:00.708Z,17.4
2022-09-10T09:35:00.418Z,16.6
2022-09-10T09:35:59.996Z,15.4
2022-09-10T09:36:59.597Z,15.7
2022-09-10T09:38:01.243Z,15.5
2022-09-10T09:39:01.667Z,15.6
2022-09-10T09:40:01.318Z,15.6
2022-09-10T09:41:01.091Z,15.2
2022-09-10T09:42:01.268Z,13.7
2022-09-10T09:43:01.089Z,13.7
2022-09-10T09:44:01.097Z,13.6
2022-09-10T09:45:01.402Z,13.6
2022-09-10T09:46:01.167Z,14.4
2022-09-10T09:47:01.108Z,14.4
2022-09-10T09:48:01.110Z,13.9
2022-09-10T09:49:01.121Z,14.6
2022-09-10T09:50:01.414Z,14.1
2022-09-10T09:51:01.394Z,13.7
2022-09-10T09:52:02.280Z,14.1
2022-09-10T09:53:02.116Z,14.3
2022-09-10T09:54:38.924Z,14.3
2022-09-10T09:55:14.354Z,14
2022-09-10T09:56:01.472Z,14
2022-09-10T09:57:01.322Z,14.2
2022-09-10T09:58:01.927Z,13.7
2022-09-10T09:59:01.373Z,14.3
2022-09-10T10:00:01.123Z,14.3
2022-09-10T10:01:01.384Z,14.2
2022-09-10T10:02:00.764Z,14.8
2022-09-10T10:03:00.324Z,15.5
2022-09-10T10:03:59.894Z,15.8
2022-09-10T10:04:59.465Z,15
2022-09-10T10:06:01.659Z,14.7
2022-09-10T10:07:01.041Z,15.2
2022-09-10T10:08:01.037Z,15.6
2022-09-10T10:09:00.635Z,15.7
2022-09-10T10:10:00.228Z,15.7
2022-09-10T10:10:59.913Z,15.5
2022-09-10T10:11:59.739Z,15.5
2022-09-10T10:13:01.760Z,15.8
2022-09-10T10:14:01.180Z,15.3
2022-09-10T10:15:01.319Z,15.1
2022-09-10T10:16:01.407Z,14.8
2022-09-10T10:17:01.518Z,14.6
2022-09-10T10:18:01.175Z,14.8
2022-09-10T10:19:01.680Z,14.9
2022-09-10T10:20:01.122Z,15.3
2022-09-10T10:21:01.199Z,15.5
2022-09-10T10:22:03.564Z,15.2
2022-09-10T10:23:01.139Z,15.2
2022-09-10T10:24:01.331Z,14.6
2022-09-10T10:25:01.264Z,14.6
2022-09-10T10:26:01.434Z,14.6
2022-09-10T10:27:06.956Z,13.9
2022-09-10T10:28:01.084Z,13.3
2022-09-10T10:29:01.251Z,13.1
2022-09-10T10:30:01.185Z,13.3
2022-09-10T10:31:01.201Z,13.5
2022-09-10T10:32:10.199Z,13.5
2022-09-10T10:33:01.500Z,13.5
2022-09-10T10:34:01.122Z,12.8
2022-09-10T10:35:01.044Z,12.2
2022-09-10T10:36:01.118Z,12.4
2022-09-10T10:37:13.933Z,12.9
2022-09-10T10:38:02.567Z,12.6
2022-09-10T10:39:01.145Z,12.7
2022-09-10T10:40:01.307Z,13
2022-09-10T10:41:01.447Z,13
2022-09-10T10:42:16.719Z,12.9
2022-09-10T10:43:01.071Z,13
2022-09-10T10:44:01.080Z,13.1
2022-09-10T10:45:01.096Z,13
2022-09-10T10:46:01.971Z,11.7
2022-09-10T10:47:01.052Z,11.9
2022-09-10T10:48:01.133Z,12.5
2022-09-10T10:49:03.499Z,12.5
2022-09-10T10:50:01.139Z,12.1
2022-09-10T10:51:01.118Z,12
2022-09-10T10:52:01.126Z,10.9
2022-09-10T10:53:01.126Z,10
2022-09-10T10:54:01.147Z,9.2
2022-09-10T10:55:00.745Z,9.1
2022-09-10T10:56:01.440Z,7.6
2022-09-10T10:57:01.434Z,7.1
2022-09-10T10:58:00.582Z,7.1
2022-09-10T10:59:00.183Z,6.5
2022-09-10T10:59:59.860Z,7.5
2022-09-10T11:01:02.627Z,7.7
2022-09-10T11:02:01.296Z,6.9
2022-09-10T11:03:01.832Z,5.9
2022-09-10T11:04:01.121Z,5.5
2022-09-10T11:05:01.146Z,5.3
2022-09-10T11:06:01.130Z,7.1
2022-09-10T11:07:01.140Z,6.2
2022-09-10T11:08:01.265Z,6.1
2022-09-10T11:09:01.166Z,5.2
2022-09-10T11:10:01.397Z,4.9
2022-09-10T11:11:01.406Z,4.9
2022-09-10T11:12:01.543Z,4.9
2022-09-10T11:13:04.127Z,4.7
2022-09-10T11:14:01.368Z,4.9
2022-09-10T11:15:01.098Z,4.6
2022-09-10T11:16:01.099Z,4.8
2022-09-10T11:17:01.075Z,4.9
2022-09-10T11:18:01.100Z,4.9
2022-09-10T11:19:01.102Z,5.3
2022-09-10T11:20:27.499Z,5.5
2022-09-10T11:21:01.110Z,5
2022-09-10T11:22:01.107Z,5.3
2022-09-10T11:23:01.119Z,4.8
2022-09-10T11:24:01.166Z,5.3
2022-09-10T11:25:01.141Z,6.1
2022-09-10T11:26:01.041Z,6.7
2022-09-10T11:27:01.052Z,7.6
2022-09-10T11:28:01.470Z,7.7
2022-09-10T11:29:01.507Z,8.3
2022-09-10T11:30:01.230Z,10
2022-09-10T11:31:02.402Z,11.6
2022-09-10T11:32:01.742Z,16
2022-09-10T11:33:01.084Z,17.9
2022-09-10T11:34:01.111Z,18.4
2022-09-10T11:35:00.795Z,17.3
2022-09-10T11:36:00.321Z,19.2
2022-09-10T11:37:00.099Z,20.5
2022-09-10T11:37:59.677Z,20.7
2022-09-10T11:39:01.355Z,23.3
2022-09-10T11:40:01.194Z,22.3
2022-09-10T11:41:02.573Z,22.6
2022-09-10T11:42:01.140Z,21.5
2022-09-10T11:43:01.784Z,22.6
2022-09-10T11:44:01.069Z,23.9
2022-09-10T11:45:01.371Z,25.3
2022-09-10T11:46:02.155Z,26.5
2022-09-10T11:47:02.084Z,26.7
2022-09-10T11:48:01.366Z,26.1
2022-09-10T11:49:01.057Z,27.3
2022-09-10T11:50:01.071Z,28.1
2022-09-10T11:51:00.680Z,25.6
2022-09-10T11:52:00.368Z,26
2022-09-10T11:53:00.097Z,25.5
2022-09-10T11:54:00.132Z,27.3
2022-09-10T11:54:59.781Z,26
2022-09-10T11:56:01.548Z,26.1
2022-09-10T11:57:01.147Z,23.8
2022-09-10T11:58:03.510Z,25.4
2022-09-10T11:59:01.070Z,25.4
2022-09-10T12:00:01.057Z,24.4
2022-09-10T12:01:01.147Z,22.3
2022-09-10T12:02:01.117Z,23.2
2022-09-10T12:03:05.727Z,24.7
2022-09-10T12:04:02.185Z,25.4
2022-09-10T12:05:01.742Z,25.2
2022-09-10T12:06:04.582Z,25.5
2022-09-10T12:07:01.044Z,25.1
2022-09-10T12:08:09.269Z,24.6
2022-09-10T12:09:01.122Z,26.1
2022-09-10T12:10:01.131Z,23.8
2022-09-10T12:11:01.529Z,21.9
2022-09-10T12:12:01.133Z,20.1
2022-09-10T12:13:11.155Z,19.7
2022-09-10T12:14:01.080Z,19.2
2022-09-10T12:15:00.741Z,19.9
2022-09-10T12:16:00.399Z,20.7
2022-09-10T12:17:00.045Z,20.3
2022-09-10T12:18:14.250Z,19.5
2022-09-10T12:19:01.093Z,20.9
2022-09-10T12:20:01.125Z,21.9
2022-09-10T12:21:01.470Z,21.9
2022-09-10T12:22:01.642Z,24.2
2022-09-10T12:23:01.133Z,23.9
2022-09-10T12:24:01.136Z,25.3
2022-09-10T12:25:01.119Z,25.7
2022-09-10T12:26:01.127Z,28.5
2022-09-10T12:27:01.152Z,30.4
2022-09-10T12:28:01.232Z,29.5
2022-09-10T12:29:01.453Z,30.3
2022-09-10T12:30:01.518Z,32.8
2022-09-10T12:31:01.485Z,35.5
2022-09-10T12:32:01.186Z,36.8
2022-09-10T12:33:01.121Z,36.1
2022-09-10T12:34:01.240Z,34.9
2022-09-10T12:35:01.671Z,33.5
2022-09-10T12:36:01.119Z,33.4
2022-09-10T12:37:01.213Z,36.9
2022-09-10T12:38:01.185Z,39.1
2022-09-10T12:39:01.576Z,41.6
2022-09-10T12:40:01.166Z,45.4
2022-09-10T12:41:01.120Z,46.7
2022-09-10T12:42:01.331Z,45.5
2022-09-10T12:43:01.132Z,45.7
2022-09-10T12:44:01.066Z,47
2022-09-10T12:45:01.051Z,50.1
2022-09-10T12:46:01.080Z,49.9
2022-09-10T12:47:01.078Z,49.7
2022-09-10T12:48:01.076Z,49
2022-09-10T12:49:01.998Z,48.7
2022-09-10T12:50:01.854Z,48.2
2022-09-10T12:51:01.483Z,47
2022-09-10T12:52:01.102Z,48.4
2022-09-10T12:53:01.097Z,47.2
2022-09-10T12:54:01.114Z,47
2022-09-10T12:55:01.290Z,48
2022-09-10T12:56:01.121Z,50
2022-09-10T12:57:01.033Z,49.3
2022-09-10T12:58:01.148Z,50
2022-09-10T12:59:01.511Z,52.9
2022-09-10T13:00:01.599Z,54.3
2022-09-10T13:01:01.451Z,50.6
2022-09-10T13:02:01.331Z,53.1
2022-09-10T13:03:02.266Z,52.2
2022-09-10T13:04:01.743Z,54.6
2022-09-10T13:05:02.002Z,53.6
2022-09-10T13:06:02.195Z,53.9
2022-09-10T13:07:01.160Z,54.4
2022-09-10T13:08:02.118Z,58
2022-09-10T13:09:01.243Z,55.7
2022-09-10T13:10:01.575Z,57.4
2022-09-10T13:11:02.141Z,57.4
2022-09-10T13:12:00.610Z,56.8
2022-09-10T13:13:00.215Z,57
2022-09-10T13:13:59.796Z,56.6
2022-09-10T13:15:01.442Z,57.4
2022-09-10T13:16:01.262Z,58.6
2022-09-10T13:17:01.049Z,57.8
2022-09-10T13:18:01.068Z,57.6
2022-09-10T13:19:01.148Z,58.1
2022-09-10T13:20:01.250Z,58.4
2022-09-10T13:21:01.081Z,57.8
2022-09-10T13:22:01.102Z,56.5
2022-09-10T13:23:01.103Z,56.1
2022-09-10T13:24:01.091Z,52.7
2022-09-10T13:25:01.100Z,45.6
2022-09-10T13:26:01.034Z,43.6
2022-09-10T13:27:01.035Z,42.6